KCOS/COS METAR and TAF weather

Enter ICAO airport designator
Station Type Date Time Source
KCOS METAR 2020/04/09 18:54 UTC NOAA

KCOS 091854Z 15003KT 10SM FEW100 SCT240 12/M01 A3013 RMK AO2 SLP176 T01171011


Station Type Date Time Source
KCOS Decoded METAR 2020/04/09 18:54 UTC NOAA

COLORADO SPRINGS MUNI, CO, United States (KCOS) 38-49N 104-43W 1856M
Apr 09, 2020 - 02:54 PM EDT / 2020.04.09 1854 UTC
Wind: from the SSE (150 degrees) at 3 MPH (3 KT):0
Visibility: 10 mile(s):0
Sky conditions: partly cloudy
Temperature: 53.1 F (11.7 C)
Dew Point: 30.0 F (-1.1 C)
Relative Humidity: 41%
Pressure (altimeter): 30.13 in. Hg (1020 hPa)
ob: KCOS 091854Z 15003KT 10SM FEW100 SCT240 12/M01 A3013 RMK AO2 SLP176 T01171011
cycle: 19

Station Type Date Time Source
KCOS TAF 2020/04/09 18:45 UTC NOAA

TAF KCOS 091741Z 0918/1018 16008KT P6SM FEW100 SCT200
FM092200 13012KT P6SM SCT080 BKN140
FM100200 12008KT P6SM VCSH SCT020 BKN080
FM100800 14007KT P6SM OVC020
FM101500 18008KT P6SM SCT020 SCT080

Example: see airport list